Time,TemperatureF,DewpointF,PressureIn,WindDirection,WindDirectionDegrees,WindSpeedMPH,WindSpeedGustMPH,Humidity,HourlyPrecipIn,Conditions,Clouds,dailyrainin,SolarRadiationWatts/m^2,SoftwareType,DateUTC
2013-03-06 00:02:00,60.0,55.0,-100.00,West,265,14.0,23.0,84,0.00,,,0.03,0.000000,,2013-03-06 05:02:00,
2013-03-06 00:12:00,60.0,55.0,-100.00,West,265,14.0,23.0,84,0.00,,,0.03,0.000000,,2013-03-06 05:12:00,
2013-03-06 00:22:00,60.0,55.0,-100.00,West,265,14.0,23.0,84,0.00,,,0.03,0.000000,,2013-03-06 05:22:00,
2013-03-06 00:42:00,57.0,51.0,-100.00,West,264,14.0,28.0,79,0.00,,,0.03,0.000000,,2013-03-06 05:42:00,
2013-03-06 00:52:00,57.0,51.0,-100.00,West,264,14.0,28.0,79,0.00,,,0.03,0.000000,,2013-03-06 05:52:00,
2013-03-06 01:02:00,57.0,51.0,-100.00,West,264,14.0,28.0,79,0.00,,,0.03,0.000000,,2013-03-06 06:02:00,
2013-03-06 01:11:00,57.0,51.0,-100.00,West,264,14.0,28.0,79,0.00,,,0.03,0.000000,,2013-03-06 06:11:00,
2013-03-06 01:22:00,57.0,51.0,-100.00,West,264,14.0,28.0,79,0.00,,,0.03,0.000000,,2013-03-06 06:22:00,
2013-03-06 01:42:00,55.0,48.0,-100.00,West,273,15.0,25.0,76,0.00,,,0.03,0.000000,,2013-03-06 06:42:00,
2013-03-06 01:52:00,55.0,48.0,-100.00,West,273,15.0,25.0,76,0.00,,,0.03,0.000000,,2013-03-06 06:52:00,
2013-03-06 02:02:00,55.0,48.0,-100.00,West,273,15.0,25.0,76,0.00,,,0.03,0.000000,,2013-03-06 07:02:00,
2013-03-06 02:11:00,55.0,48.0,-100.00,West,273,15.0,25.0,76,0.00,,,0.03,0.000000,,2013-03-06 07:11:00,
2013-03-06 02:22:00,55.0,48.0,-100.00,West,273,15.0,25.0,76,0.00,,,0.03,0.000000,,2013-03-06 07:22:00,
2013-03-06 02:42:00,52.0,42.0,-100.00,WNW,288,16.0,28.0,68,0.00,,,0.03,0.000000,,2013-03-06 07:42:00,
2013-03-06 02:52:00,52.0,42.0,-100.00,WNW,288,16.0,28.0,68,0.00,,,0.03,0.000000,,2013-03-06 07:52:00,
2013-03-06 03:01:00,52.0,42.0,-100.00,WNW,288,16.0,28.0,68,0.00,,,0.03,0.000000,,2013-03-06 08:01:00,
2013-03-06 03:11:00,52.0,42.0,-100.00,WNW,288,16.0,28.0,68,0.00,,,0.03,0.000000,,2013-03-06 08:11:00,
2013-03-06 03:21:00,52.0,42.0,-100.00,WNW,288,16.0,28.0,68,0.00,,,0.03,0.000000,,2013-03-06 08:21:00,
2013-03-06 03:42:00,45.0,30.0,-100.00,WNW,287,20.0,35.0,55,0.00,,,0.03,0.000000,,2013-03-06 08:42:00,
2013-03-06 03:52:00,45.0,30.0,-100.00,WNW,287,20.0,35.0,55,0.00,,,0.03,0.000000,,2013-03-06 08:52:00,
2013-03-06 04:02:00,45.0,30.0,-100.00,WNW,287,20.0,35.0,55,0.00,,,0.03,0.000000,,2013-03-06 09:02:00,
2013-03-06 04:12:00,45.0,30.0,-100.00,WNW,287,20.0,35.0,55,0.00,,,0.03,0.000000,,2013-03-06 09:12:00,
2013-03-06 04:21:00,45.0,30.0,-100.00,WNW,287,20.0,35.0,55,0.00,,,0.03,0.000000,,2013-03-06 09:21:00,
2013-03-06 04:42:00,43.0,28.0,-100.00,WNW,290,16.0,32.0,56,0.00,,,0.03,0.000000,,2013-03-06 09:42:00,
2013-03-06 04:52:00,43.0,28.0,-100.00,WNW,290,16.0,32.0,56,0.00,,,0.03,0.000000,,2013-03-06 09:52:00,
2013-03-06 05:02:00,43.0,28.0,-100.00,WNW,290,16.0,32.0,56,0.00,,,0.03,0.000000,,2013-03-06 10:02:00,
2013-03-06 05:11:00,43.0,28.0,-100.00,WNW,290,16.0,32.0,56,0.00,,,0.03,0.000000,,2013-03-06 10:11:00,
2013-03-06 05:22:00,43.0,28.0,-100.00,WNW,290,16.0,32.0,56,0.00,,,0.03,0.000000,,2013-03-06 10:22:00,
2013-03-06 05:42:00,42.0,28.0,-100.00,WNW,290,15.0,26.0,57,0.00,,,0.03,0.000000,,2013-03-06 10:42:00,
2013-03-06 05:52:00,42.0,28.0,-100.00,WNW,290,15.0,26.0,57,0.00,,,0.03,0.000000,,2013-03-06 10:52:00,
2013-03-06 06:02:00,42.0,28.0,-100.00,WNW,290,15.0,26.0,57,0.00,,,0.03,0.000000,,2013-03-06 11:02:00,
2013-03-06 06:11:00,42.0,28.0,-100.00,WNW,290,15.0,26.0,57,0.00,,,0.03,0.000000,,2013-03-06 11:11:00,
2013-03-06 06:22:00,42.0,28.0,-100.00,WNW,290,15.0,26.0,57,0.00,,,0.03,0.000000,,2013-03-06 11:22:00,
2013-03-06 06:43:00,41.0,29.0,-100.00,West,276,13.0,23.0,62,0.00,,,0.03,0.000000,,2013-03-06 11:43:00,
2013-03-06 06:52:00,41.0,29.0,-100.00,West,276,13.0,23.0,62,0.00,,,0.03,0.000000,,2013-03-06 11:52:00,
2013-03-06 07:02:00,41.0,29.0,-100.00,West,276,13.0,23.0,62,0.00,,,0.03,0.000000,,2013-03-06 12:02:00,
2013-03-06 07:12:00,41.0,29.0,-100.00,West,276,13.0,23.0,62,0.00,,,0.03,0.000000,,2013-03-06 12:12:00,
2013-03-06 07:22:00,41.0,29.0,-100.00,West,276,13.0,23.0,62,0.00,,,0.03,0.000000,,2013-03-06 12:22:00,
2013-03-06 07:43:00,42.0,29.0,-100.00,WNW,285,17.0,25.0,60,0.00,,,0.03,16.000000,,2013-03-06 12:43:00,
2013-03-06 07:53:00,42.0,29.0,-100.00,WNW,285,17.0,25.0,60,0.00,,,0.03,16.000000,,2013-03-06 12:53:00,
2013-03-06 08:02:00,42.0,29.0,-100.00,WNW,285,17.0,25.0,60,0.00,,,0.03,16.000000,,2013-03-06 13:02:00,
2013-03-06 08:12:00,42.0,29.0,-100.00,WNW,285,17.0,25.0,60,0.00,,,0.03,16.000000,,2013-03-06 13:12:00,
2013-03-06 08:22:00,42.0,29.0,-100.00,WNW,285,17.0,25.0,60,0.00,,,0.03,16.000000,,2013-03-06 13:22:00,
2013-03-06 08:42:00,44.0,27.0,-100.00,WNW,295,20.0,28.0,50,0.00,,,0.03,154.000000,,2013-03-06 13:42:00,
2013-03-06 08:52:00,44.0,27.0,-100.00,WNW,295,20.0,28.0,50,0.00,,,0.03,154.000000,,2013-03-06 13:52:00,
2013-03-06 09:02:00,44.0,27.0,-100.00,WNW,295,20.0,28.0,50,0.00,,,0.03,154.000000,,2013-03-06 14:02:00,
2013-03-06 09:11:00,44.0,27.0,-100.00,WNW,295,20.0,28.0,50,0.00,,,0.03,154.000000,,2013-03-06 14:11:00,
2013-03-06 09:22:00,44.0,27.0,-100.00,WNW,295,20.0,28.0,50,0.00,,,0.03,154.000000,,2013-03-06 14:22:00,
2013-03-06 09:42:00,44.0,22.0,-100.00,WNW,296,22.0,32.0,42,0.00,,,0.03,363.000000,,2013-03-06 14:42:00,
2013-03-06 09:53:00,44.0,22.0,-100.00,WNW,296,22.0,32.0,42,0.00,,,0.03,363.000000,,2013-03-06 14:53:00,
2013-03-06 10:02:00,44.0,22.0,-100.00,WNW,296,22.0,32.0,42,0.00,,,0.03,363.000000,,2013-03-06 15:02:00,
2013-03-06 10:12:00,44.0,22.0,-100.00,WNW,296,22.0,32.0,42,0.00,,,0.03,363.000000,,2013-03-06 15:12:00,
2013-03-06 10:22:00,44.0,22.0,-100.00,WNW,296,22.0,32.0,42,0.00,,,0.03,363.000000,,2013-03-06 15:22:00,
2013-03-06 10:42:00,45.0,24.0,-100.00,NW,305,17.0,34.0,44,0.00,,,0.03,538.000000,,2013-03-06 15:42:00,
2013-03-06 10:52:00,45.0,24.0,-100.00,NW,305,17.0,34.0,44,0.00,,,0.03,538.000000,,2013-03-06 15:52:00,
2013-03-06 11:02:00,45.0,24.0,-100.00,NW,305,17.0,34.0,44,0.00,,,0.03,538.000000,,2013-03-06 16:02:00,
2013-03-06 11:12:00,45.0,24.0,-100.00,NW,305,17.0,34.0,44,0.00,,,0.03,538.000000,,2013-03-06 16:12:00,
2013-03-06 11:21:00,45.0,24.0,-100.00,NW,305,17.0,34.0,44,0.00,,,0.03,538.000000,,2013-03-06 16:21:00,
2013-03-06 11:42:00,47.0,25.0,-100.00,WNW,284,19.0,36.0,41,0.00,,,0.03,669.000000,,2013-03-06 16:42:00,
2013-03-06 11:52:00,47.0,25.0,-100.00,WNW,284,19.0,36.0,41,0.00,,,0.03,669.000000,,2013-03-06 16:52:00,
2013-03-06 12:01:00,47.0,25.0,-100.00,WNW,284,19.0,36.0,41,0.00,,,0.03,669.000000,,2013-03-06 17:01:00,
2013-03-06 12:11:00,47.0,25.0,-100.00,WNW,284,19.0,36.0,41,0.00,,,0.03,669.000000,,2013-03-06 17:11:00,
2013-03-06 12:22:00,47.0,25.0,-100.00,WNW,284,19.0,36.0,41,0.00,,,0.03,669.000000,,2013-03-06 17:22:00,
2013-03-06 12:23:00,48.0,25.0,-100.00,WNW,296,19.0,33.0,40,0.00,,,0.03,750.000000,,2013-03-06 17:23:00,
2013-03-06 12:42:00,48.0,25.0,-100.00,WNW,296,19.0,33.0,40,0.00,,,0.03,750.000000,,2013-03-06 17:42:00,
2013-03-06 12:53:00,48.0,25.0,-100.00,WNW,296,19.0,33.0,40,0.00,,,0.03,750.000000,,2013-03-06 17:53:00,
2013-03-06 13:02:00,48.0,25.0,-100.00,WNW,296,19.0,33.0,40,0.00,,,0.03,750.000000,,2013-03-06 18:02:00,
2013-03-06 13:42:00,49.0,25.0,-100.00,WNW,299,21.0,37.0,39,0.00,,,0.03,794.000000,,2013-03-06 18:42:00,
2013-03-06 13:53:00,49.0,25.0,-100.00,WNW,299,21.0,37.0,39,0.00,,,0.03,794.000000,,2013-03-06 18:53:00,
2013-03-06 14:02:00,49.0,25.0,-100.00,WNW,299,21.0,37.0,39,0.00,,,0.03,794.000000,,2013-03-06 19:02:00,
2013-03-06 14:11:00,49.0,25.0,-100.00,WNW,299,21.0,37.0,39,0.00,,,0.03,794.000000,,2013-03-06 19:11:00,
2013-03-06 14:22:00,49.0,25.0,-100.00,WNW,299,21.0,37.0,39,0.00,,,0.03,794.000000,,2013-03-06 19:22:00,
2013-03-06 14:43:00,50.0,27.0,-100.00,NW,308,17.0,34.0,40,0.00,,,0.03,671.000000,,2013-03-06 19:43:00,
2013-03-06 14:53:00,50.0,27.0,-100.00,NW,308,17.0,34.0,40,0.00,,,0.03,671.000000,,2013-03-06 19:53:00,
2013-03-06 15:02:00,50.0,27.0,-100.00,NW,308,17.0,34.0,40,0.00,,,0.03,671.000000,,2013-03-06 20:02:00,
2013-03-06 15:12:00,50.0,27.0,-100.00,NW,308,17.0,34.0,40,0.00,,,0.03,671.000000,,2013-03-06 20:12:00,
2013-03-06 15:22:00,50.0,27.0,-100.00,NW,308,17.0,34.0,40,0.00,,,0.03,671.000000,,2013-03-06 20:22:00,
2013-03-06 15:43:00,51.0,27.0,-100.00,WNW,303,15.0,30.0,39,0.00,,,0.03,622.000000,,2013-03-06 20:43:00,
2013-03-06 15:53:00,51.0,27.0,-100.00,WNW,303,15.0,30.0,39,0.00,,,0.03,622.000000,,2013-03-06 20:53:00,
2013-03-06 16:02:00,51.0,27.0,-100.00,WNW,303,15.0,30.0,39,0.00,,,0.03,622.000000,,2013-03-06 21:02:00,
2013-03-06 16:12:00,51.0,27.0,-100.00,WNW,303,15.0,30.0,39,0.00,,,0.03,622.000000,,2013-03-06 21:12:00,
2013-03-06 16:22:00,51.0,27.0,-100.00,WNW,303,15.0,30.0,39,0.00,,,0.03,622.000000,,2013-03-06 21:22:00,
2013-03-06 16:43:00,51.0,28.0,-100.00,WNW,292,21.0,32.0,40,0.00,,,0.03,467.000000,,2013-03-06 21:43:00,
2013-03-06 16:52:00,51.0,28.0,-100.00,WNW,292,21.0,32.0,40,0.00,,,0.03,467.000000,,2013-03-06 21:52:00,
2013-03-06 17:02:00,51.0,28.0,-100.00,WNW,292,21.0,32.0,40,0.00,,,0.03,467.000000,,2013-03-06 22:02:00,
2013-03-06 17:11:00,51.0,28.0,-100.00,WNW,292,21.0,32.0,40,0.00,,,0.03,467.000000,,2013-03-06 22:11:00,
2013-03-06 17:22:00,51.0,28.0,-100.00,WNW,292,21.0,32.0,40,0.00,,,0.03,467.000000,,2013-03-06 22:22:00,
2013-03-06 17:42:00,50.0,28.0,-100.00,NW,312,14.0,29.0,43,0.00,,,0.03,282.000000,,2013-03-06 22:42:00,
2013-03-06 17:52:00,50.0,28.0,-100.00,NW,312,14.0,29.0,43,0.00,,,0.03,282.000000,,2013-03-06 22:52:00,
2013-03-06 18:02:00,50.0,28.0,-100.00,NW,312,14.0,29.0,43,0.00,,,0.03,282.000000,,2013-03-06 23:02:00,
2013-03-06 18:11:00,50.0,28.0,-100.00,NW,312,14.0,29.0,43,0.00,,,0.03,282.000000,,2013-03-06 23:11:00,
2013-03-06 18:21:00,50.0,28.0,-100.00,NW,312,14.0,29.0,43,0.00,,,0.03,282.000000,,2013-03-06 23:21:00,
2013-03-06 18:42:00,48.0,29.0,-100.00,NW,309,10.0,29.0,47,0.00,,,0.03,88.000000,,2013-03-06 23:42:00,
2013-03-06 18:52:00,48.0,29.0,-100.00,NW,309,10.0,29.0,47,0.00,,,0.03,88.000000,,2013-03-06 23:52:00,
2013-03-06 19:02:00,48.0,29.0,-100.00,NW,309,10.0,29.0,47,0.00,,,0.03,88.000000,,2013-03-07 00:02:00,
2013-03-06 19:11:00,48.0,29.0,-100.00,NW,309,10.0,29.0,47,0.00,,,0.03,88.000000,,2013-03-07 00:11:00,
2013-03-06 19:21:00,48.0,29.0,-100.00,NW,309,10.0,29.0,47,0.00,,,0.03,88.000000,,2013-03-07 00:21:00,
2013-03-06 19:42:00,46.0,29.0,-100.00,WNW,303,8.0,17.0,52,0.00,,,0.03,1.000000,,2013-03-07 00:42:00,
2013-03-06 19:52:00,46.0,29.0,-100.00,WNW,303,8.0,17.0,52,0.00,,,0.03,1.000000,,2013-03-07 00:52:00,
2013-03-06 20:02:00,46.0,29.0,-100.00,WNW,303,8.0,17.0,52,0.00,,,0.03,1.000000,,2013-03-07 01:02:00,
2013-03-06 20:12:00,46.0,29.0,-100.00,WNW,303,8.0,17.0,52,0.00,,,0.03,1.000000,,2013-03-07 01:12:00,
2013-03-06 20:21:00,46.0,29.0,-100.00,WNW,303,8.0,17.0,52,0.00,,,0.03,1.000000,,2013-03-07 01:21:00,
2013-03-06 20:42:00,45.0,30.0,-100.00,WNW,303,8.0,15.0,55,0.00,,,0.03,0.000000,,2013-03-07 01:42:00,
2013-03-06 20:52:00,45.0,30.0,-100.00,WNW,303,8.0,15.0,55,0.00,,,0.03,0.000000,,2013-03-07 01:52:00,
2013-03-06 21:01:00,45.0,30.0,-100.00,WNW,303,8.0,15.0,55,0.00,,,0.03,0.000000,,2013-03-07 02:01:00,
2013-03-06 21:11:00,45.0,30.0,-100.00,WNW,303,8.0,15.0,55,0.00,,,0.03,0.000000,,2013-03-07 02:11:00,
2013-03-06 21:21:00,45.0,30.0,-100.00,WNW,303,8.0,15.0,55,0.00,,,0.03,0.000000,,2013-03-07 02:21:00,
2013-03-06 22:02:00,44.0,30.0,-100.00,WNW,303,7.0,13.0,58,0.00,,,0.03,0.000000,,2013-03-07 03:02:00,
2013-03-06 22:12:00,44.0,30.0,-100.00,WNW,303,7.0,13.0,58,0.00,,,0.03,0.000000,,2013-03-07 03:12:00,
2013-03-06 22:21:00,44.0,30.0,-100.00,WNW,303,7.0,13.0,58,0.00,,,0.03,0.000000,,2013-03-07 03:21:00,
2013-03-06 22:42:00,42.0,30.0,-100.00,NW,304,7.0,12.0,62,0.00,,,0.00,0.000000,,2013-03-07 03:42:00,
2013-03-06 22:52:00,42.0,30.0,-100.00,NW,304,7.0,12.0,62,0.00,,,0.00,0.000000,,2013-03-07 03:52:00,
2013-03-06 23:02:00,42.0,30.0,-100.00,NW,304,7.0,12.0,62,0.00,,,0.00,0.000000,,2013-03-07 04:02:00,
2013-03-06 23:12:00,42.0,30.0,-100.00,NW,304,7.0,12.0,62,0.00,,,0.00,0.000000,,2013-03-07 04:12:00,
2013-03-06 23:22:00,42.0,30.0,-100.00,NW,304,7.0,12.0,62,0.00,,,0.00,0.000000,,2013-03-07 04:22:00,
2013-03-06 23:42:00,40.0,30.0,-100.00,NW,307,5.0,10.0,68,0.00,,,0.00,0.000000,,2013-03-07 04:42:00,
2013-03-06 23:52:00,40.0,30.0,-100.00,NW,307,5.0,10.0,68,0.00,,,0.00,0.000000,,2013-03-07 04:52:00,